Time;durP1;ratioP1;P1;durP2;ratioP2;P2;SDS_P1;SDS_P2;PMS_P1;PMS_P2;Temp;Humidity;BMP_temperature;BMP_pressure;BME280_temperature;BME280_humidity;BME280_pressure;Samples;Min_cycle;Max_cycle;Signal;HPM_P1;HPM_P2
2023/08/14 00:03:12;;;;;;;16.33;8.35;;;;;;;17.71;100.00;100662.59;10528275;28;20047;-76
2023/08/14 00:08:14;;;;;;;15.13;8.40;;;;;;;17.65;100.00;100667.44;10516891;28;20113;-76
2023/08/14 00:13:20;;;;;;;14.25;7.88;;;;;;;17.60;100.00;100667.63;10495189;28;20045;-76
2023/08/14 00:18:23;;;;;;;14.30;8.10;;;;;;;17.61;100.00;100671.22;10486635;28;20041;-76
2023/08/14 00:23:25;;;;;;;12.70;7.97;;;;;;;17.53;100.00;100660.91;10490563;28;20069;-76
2023/08/14 00:28:27;;;;;;;11.93;7.25;;;;;;;17.51;100.00;100669.56;10514412;28;20059;-76
2023/08/14 00:33:29;;;;;;;12.82;7.15;;;;;;;17.51;100.00;100677.09;10510418;28;20043;-77
2023/08/14 00:38:31;;;;;;;16.63;8.45;;;;;;;17.46;100.00;100673.34;10529204;28;20056;-77
2023/08/14 00:43:34;;;;;;;13.82;7.20;;;;;;;17.47;100.00;100663.06;10489348;28;20051;-77
2023/08/14 00:48:36;;;;;;;14.63;7.90;;;;;;;17.48;100.00;100662.72;10527989;28;20048;-77
2023/08/14 00:53:38;;;;;;;12.27;7.05;;;;;;;17.45;100.00;100654.25;10527017;28;20040;-77
2023/08/14 00:58:41;;;;;;;12.13;6.88;;;;;;;17.41;100.00;100664.38;10474320;28;20049;-77
2023/08/14 01:03:43;;;;;;;11.70;7.32;;;;;;;17.39;100.00;100658.34;10497988;28;20048;-77
2023/08/14 01:08:46;;;;;;;9.52;6.25;;;;;;;17.40;100.00;100665.50;10508114;28;20071;-76
2023/08/14 01:13:54;;;;;;;10.27;6.40;;;;;;;17.37;100.00;100664.22;10509200;28;20060;-76
2023/08/14 01:18:58;;;;;;;11.63;6.97;;;;;;;17.34;100.00;100666.78;10526072;28;20063;-77
2023/08/14 01:24:05;;;;;;;8.60;5.65;;;;;;;17.29;100.00;100666.97;10476167;28;20132;-76
2023/08/14 01:29:07;;;;;;;9.45;5.40;;;;;;;17.29;100.00;100672.50;10514465;28;20399;-77
2023/08/14 01:34:10;;;;;;;8.13;4.90;;;;;;;17.28;100.00;100682.78;10489202;28;20048;-77
2023/08/14 01:39:15;;;;;;;9.25;5.15;;;;;;;17.27;100.00;100680.34;10523279;28;20047;-77
2023/08/14 01:44:19;;;;;;;8.00;4.55;;;;;;;17.33;100.00;100684.59;10525512;28;20415;-77
2023/08/14 01:49:22;;;;;;;8.13;5.03;;;;;;;17.29;100.00;100681.66;10480206;28;20055;-76
2023/08/14 01:54:24;;;;;;;6.57;4.60;;;;;;;17.25;100.00;100685.41;10509508;28;20048;-76
2023/08/14 01:59:40;;;;;;;6.38;4.20;;;;;;;17.25;100.00;100691.78;10466252;28;20060;-77
2023/08/14 02:04:42;;;;;;;6.80;4.47;;;;;;;17.25;100.00;100691.78;10467894;28;20041;-77
2023/08/14 02:09:45;;;;;;;6.45;4.72;;;;;;;17.25;100.00;100693.72;10453253;28;20411;-77
2023/08/14 02:14:47;;;;;;;9.57;4.70;;;;;;;17.29;100.00;100703.84;10524130;28;20048;-76
2023/08/14 02:19:49;;;;;;;9.55;5.30;;;;;;;17.28;100.00;100701.38;10525233;28;20061;-77
2023/08/14 02:24:52;;;;;;;9.90;5.45;;;;;;;17.21;100.00;100706.63;10491090;28;20537;-77
2023/08/14 02:29:55;;;;;;;8.45;5.18;;;;;;;17.21;100.00;100707.44;10524367;28;20128;-77
2023/08/14 02:34:57;;;;;;;10.35;5.45;;;;;;;17.18;100.00;100714.44;10507383;28;20048;-77
2023/08/14 02:39:59;;;;;;;8.23;5.28;;;;;;;17.09;100.00;100721.91;10502183;28;20048;-77
2023/08/14 02:45:02;;;;;;;9.10;5.07;;;;;;;17.07;100.00;100729.75;10466757;28;20041;-77
2023/08/14 02:50:06;;;;;;;6.60;4.38;;;;;;;17.04;100.00;100730.41;10470725;28;20132;-77
2023/08/14 02:55:09;;;;;;;6.25;4.22;;;;;;;17.07;100.00;100735.28;10480710;28;20032;-77
2023/08/14 03:00:12;;;;;;;7.43;4.53;;;;;;;17.10;99.31;100740.19;10501666;28;20632;-77
2023/08/14 03:05:15;;;;;;;7.18;4.47;;;;;;;17.09;99.06;100738.56;10466792;28;20045;-77
2023/08/14 03:10:17;;;;;;;7.53;3.95;;;;;;;17.24;97.84;100744.78;10469659;28;20053;-77
2023/08/14 03:15:19;;;;;;;6.65;4.18;;;;;;;18.24;92.95;100728.81;10490422;28;20052;-77
2023/08/14 03:20:21;;;;;;;7.47;3.92;;;;;;;19.22;84.86;100735.25;10489679;28;20052;-77
2023/08/14 03:25:24;;;;;;;5.90;4.00;;;;;;;19.84;80.39;100740.88;10488695;28;20053;-77
2023/08/14 03:30:26;;;;;;;7.00;3.97;;;;;;;20.29;78.11;100733.72;10504092;28;20049;-77
2023/08/14 03:35:30;;;;;;;3.92;3.40;;;;;;;20.61;75.24;100738.47;10487684;28;20091;-77
2023/08/14 03:40:33;;;;;;;6.07;3.78;;;;;;;20.96;73.28;100744.41;10485786;28;20053;-77
2023/08/14 03:45:35;;;;;;;5.88;3.72;;;;;;;21.47;71.94;100744.06;10489231;28;20053;-77
2023/08/14 03:50:37;;;;;;;5.03;3.47;;;;;;;21.68;70.08;100747.50;10484169;28;20060;-77
2023/08/14 03:55:39;;;;;;;5.13;3.83;;;;;;;22.01;69.15;100746.44;10492893;28;20048;-77
2023/08/14 04:00:41;;;;;;;4.63;3.67;;;;;;;22.12;67.43;100753.19;10495165;28;20048;-77
2023/08/14 04:05:43;;;;;;;6.50;3.63;;;;;;;22.55;66.55;100750.38;10529141;28;20456;-77
2023/08/14 04:10:55;;;;;;;4.18;2.97;;;;;;;22.69;64.71;100755.53;10510402;28;20075;-77
2023/08/14 04:16:00;;;;;;;5.10;2.60;;;;;;;22.98;62.79;100756.28;10486273;28;20044;-77
2023/08/14 04:21:03;;;;;;;3.58;2.80;;;;;;;23.46;60.32;100755.03;10519428;28;20521;-77
2023/08/14 04:26:05;;;;;;;4.30;2.80;;;;;;;23.87;58.45;100755.56;10509337;28;20048;-77
2023/08/14 04:31:08;;;;;;;2.72;2.45;;;;;;;24.14;58.01;100748.91;10525430;28;20047;-77
2023/08/14 04:36:10;;;;;;;4.35;2.50;;;;;;;24.16;56.63;100749.34;10490764;28;20045;-77
2023/08/14 04:41:12;;;;;;;3.88;2.72;;;;;;;24.16;56.20;100752.16;10464099;28;20049;-77
2023/08/14 04:46:34;;;;;;;6.30;2.40;;;;;;;22.94;60.78;100759.00;10512825;28;20099;-78
2023/08/14 04:51:37;;;;;;;3.88;1.95;;;;;;;21.64;63.56;100763.34;10494064;28;20060;-78
2023/08/14 04:56:39;;;;;;;3.40;2.20;;;;;;;20.85;65.78;100771.16;10468872;28;20045;-78
2023/08/14 05:01:42;;;;;;;2.58;2.25;;;;;;;20.75;66.43;100780.78;10500143;28;20404;-78
2023/08/14 05:06:45;;;;;;;3.38;2.20;;;;;;;20.63;67.59;100789.13;10509812;28;20044;-78
2023/08/14 05:11:47;;;;;;;5.25;2.28;;;;;;;20.69;67.74;100786.94;10509206;28;20063;-78
2023/08/14 05:16:49;;;;;;;3.47;2.22;;;;;;;20.94;67.54;100785.00;10527825;28;20048;-78
2023/08/14 05:21:52;;;;;;;6.28;2.35;;;;;;;22.36;63.24;100780.22;10512993;28;20048;-78
2023/08/14 05:26:55;;;;;;;2.78;2.50;;;;;;;23.97;58.53;100781.00;10510675;28;20047;-78
2023/08/14 05:31:59;;;;;;;2.25;2.05;;;;;;;25.33;53.64;100775.91;10526164;28;20051;-78
2023/08/14 05:37:02;;;;;;;5.15;2.47;;;;;;;25.79;51.68;100781.41;10526976;28;20517;-78
2023/08/14 05:42:04;;;;;;;4.38;1.92;;;;;;;25.72;50.98;100772.91;10526801;28;20041;-78
2023/08/14 05:47:06;;;;;;;3.05;2.10;;;;;;;26.44;48.82;100778.22;10524012;28;20037;-78
2023/08/14 05:52:08;;;;;;;2.55;1.83;;;;;;;26.89;47.84;100782.66;10470834;28;20043;-78
2023/08/14 05:57:10;;;;;;;3.25;1.70;;;;;;;26.78;48.76;100769.72;10526835;28;20053;-76
2023/08/14 06:02:13;;;;;;;2.78;1.85;;;;;;;27.20;47.56;100778.53;10525968;28;20417;-79
2023/08/14 06:07:16;;;;;;;3.65;2.03;;;;;;;27.48;47.39;100780.75;10484133;28;20036;-78
2023/08/14 06:12:19;;;;;;;3.92;2.13;;;;;;;27.84;46.42;100790.25;10525873;28;20068;-78
2023/08/14 06:17:21;;;;;;;4.28;2.00;;;;;;;26.88;46.92;100791.50;10508368;28;20041;-78
2023/08/14 06:22:23;;;;;;;2.85;1.70;;;;;;;26.70;48.01;100788.50;10525432;28;20044;-77
2023/08/14 06:27:25;;;;;;;2.50;1.85;;;;;;;27.74;46.20;100781.72;10534057;28;20045;-77
2023/08/14 06:32:27;;;;;;;5.32;1.70;;;;;;;27.79;45.66;100787.81;10534064;28;20048;-78
2023/08/14 06:37:30;;;;;;;5.75;1.75;;;;;;;26.97;46.59;100795.63;10532091;28;20048;-78
2023/08/14 06:42:32;;;;;;;1.40;1.30;;;;;;;27.68;45.92;100803.84;10514055;28;20052;-79
2023/08/14 06:47:42;;;;;;;3.13;1.70;;;;;;;27.87;46.17;100812.00;10514750;28;20044;-75
2023/08/14 06:52:46;;;;;;;4.20;2.03;;;;;;;27.98;45.54;100822.56;10514690;28;20050;-74
2023/08/14 06:57:48;;;;;;;2.70;1.90;;;;;;;27.17;46.95;100824.38;10506780;28;20064;-75
2023/08/14 07:02:50;;;;;;;2.47;1.73;;;;;;;26.54;49.38;100825.34;10508401;28;20048;-75
2023/08/14 07:07:52;;;;;;;2.00;1.80;;;;;;;26.00;50.30;100829.47;10534548;28;20036;-74
2023/08/14 07:12:54;;;;;;;4.25;2.10;;;;;;;24.42;54.53;100834.81;10521632;28;20056;-74
2023/08/14 07:17:58;;;;;;;4.25;2.10;;;;;;;23.36;58.60;100842.41;10490732;28;20083;-74
2023/08/14 07:23:00;;;;;;;4.13;2.25;;;;;;;22.95;59.72;100855.78;10490078;28;20060;-74
2023/08/14 07:28:03;;;;;;;4.53;2.10;;;;;;;23.11;60.09;100856.63;10489777;28;20041;-73
2023/08/14 07:33:07;;;;;;;3.67;2.25;;;;;;;23.93;59.35;100858.59;10489771;28;20056;-73
2023/08/14 07:38:10;;;;;;;2.35;2.15;;;;;;;25.38;54.58;100865.50;10470484;28;20048;-72
2023/08/14 07:43:12;;;;;;;2.70;2.30;;;;;;;24.13;57.79;100878.25;10488357;28;20049;-72
2023/08/14 07:48:14;;;;;;;3.60;2.60;;;;;;;24.11;58.15;100887.00;10489743;28;20499;-72
2023/08/14 07:53:16;;;;;;;2.88;2.47;;;;;;;24.04;59.06;100898.91;10471424;28;20044;-72
2023/08/14 07:58:19;;;;;;;3.75;2.67;;;;;;;23.06;61.58;100889.63;10488644;28;20439;-72
2023/08/14 08:03:21;;;;;;;2.72;2.42;;;;;;;22.86;62.83;100897.09;10516017;28;20056;-73
2023/08/14 08:08:24;;;;;;;3.72;3.20;;;;;;;22.72;63.74;100899.47;10529833;28;20040;-72
2023/08/14 08:13:26;;;;;;;4.53;2.95;;;;;;;23.25;62.52;100897.31;10529350;28;20045;-74
2023/08/14 08:18:29;;;;;;;5.50;3.08;;;;;;;24.51;58.07;100894.31;10507060;28;20053;-74
2023/08/14 08:23:31;;;;;;;4.78;2.80;;;;;;;23.61;60.47;100899.09;10515990;28;20052;-74
2023/08/14 08:28:33;;;;;;;6.03;3.08;;;;;;;23.04;63.12;100901.19;10528770;28;20040;-72
2023/08/14 08:33:36;;;;;;;3.00;2.38;;;;;;;22.68;64.00;100895.75;10528404;28;20036;-73
2023/08/14 08:38:38;;;;;;;3.17;2.25;;;;;;;22.29;66.07;100898.25;10512555;28;20577;-73
2023/08/14 08:43:41;;;;;;;3.70;2.63;;;;;;;22.10;67.09;100909.25;10546627;28;20048;-72
2023/08/14 08:48:44;;;;;;;6.03;2.70;;;;;;;24.99;58.63;100892.84;10557451;28;20044;-73
2023/08/14 08:53:46;;;;;;;3.38;2.33;;;;;;;26.97;52.48;100888.56;10521242;28;20044;-72
2023/08/14 08:58:48;;;;;;;4.97;2.63;;;;;;;26.70;51.43;100889.88;10507820;28;20059;-72
2023/08/14 09:03:51;;;;;;;3.25;2.30;;;;;;;25.23;54.17;100902.94;10527324;28;20056;-73
2023/08/14 09:08:53;;;;;;;2.58;2.10;;;;;;;25.31;54.64;100904.69;10527679;28;20400;-72
2023/08/14 09:13:56;;;;;;;1.75;1.60;;;;;;;26.20;52.65;100910.91;10483115;28;20056;-72
2023/08/14 09:18:59;;;;;;;3.22;1.73;;;;;;;25.77;53.38;100904.66;10503975;28;20063;-72
2023/08/14 09:24:01;;;;;;;1.67;1.58;;;;;;;24.27;55.51;100918.63;10509554;28;20126;-72
2023/08/14 09:29:04;;;;;;;2.15;1.80;;;;;;;24.25;54.79;100915.38;10526668;28;20491;-72
2023/08/14 09:34:07;;;;;;;1.98;1.60;;;;;;;23.45;57.57;100911.09;10526885;28;20051;-72
2023/08/14 09:39:10;;;;;;;1.77;1.50;;;;;;;23.26;58.16;100925.00;10526864;28;20041;-73
2023/08/14 09:44:12;;;;;;;3.05;1.40;;;;;;;23.12;57.78;100924.59;10562968;28;20059;-72
2023/08/14 09:49:16;;;;;;;3.00;1.63;;;;;;;23.09;58.23;100922.53;10509943;28;20056;-72
2023/08/14 09:54:18;;;;;;;1.75;1.20;;;;;;;22.81;59.08;100920.53;10527054;28;20511;-72
2023/08/14 09:59:21;;;;;;;2.53;1.30;;;;;;;22.99;57.86;100928.66;10529774;28;20045;-72
2023/08/14 10:04:23;;;;;;;1.70;1.30;;;;;;;23.01;59.02;100934.69;10534037;28;20041;-72
2023/08/14 10:09:27;;;;;;;3.97;1.25;;;;;;;22.95;59.90;100928.56;10520036;28;20370;-72
2023/08/14 10:14:30;;;;;;;2.00;1.90;;;;;;;22.85;60.10;100934.66;10534429;28;20048;-72
2023/08/14 10:19:33;;;;;;;1.65;1.20;;;;;;;22.89;60.36;100949.56;10509399;28;20033;-72
2023/08/14 10:24:37;;;;;;;0.90;0.90;;;;;;;22.51;59.60;100953.63;10497587;28;20040;-72
2023/08/14 10:29:39;;;;;;;1.20;1.10;;;;;;;22.16;60.28;100956.16;10519702;28;20040;-72
2023/08/14 10:34:42;;;;;;;0.85;0.85;;;;;;;22.46;60.01;100964.25;10513152;28;20047;-72
2023/08/14 10:39:44;;;;;;;1.88;0.90;;;;;;;22.54;59.86;100966.91;10513578;28;20059;-72
2023/08/14 10:44:48;;;;;;;1.00;0.82;;;;;;;22.60;59.99;100975.06;10497300;28;20041;-72
2023/08/14 10:49:51;;;;;;;2.75;1.27;;;;;;;22.35;59.38;100974.31;10550517;28;20040;-74
2023/08/14 10:54:53;;;;;;;2.92;0.90;;;;;;;21.93;60.46;100994.94;10530342;28;20037;-74
2023/08/14 10:59:57;;;;;;;3.10;1.10;;;;;;;21.44;62.09;100991.28;10546158;28;20051;-73
2023/08/14 11:05:16;;;;;;;3.08;1.08;;;;;;;21.15;63.60;100994.19;10497989;28;20048;-73
2023/08/14 11:10:18;;;;;;;3.35;0.95;;;;;;;21.23;63.23;100987.72;10505495;28;20037;-74
2023/08/14 11:15:21;;;;;;;2.20;0.95;;;;;;;21.19;61.77;100998.75;10514288;28;20039;-74
2023/08/14 11:20:29;;;;;;;0.77;0.77;;;;;;;21.31;62.61;100989.59;10533392;28;20040;-74
2023/08/14 11:25:32;;;;;;;1.40;0.70;;;;;;;21.51;62.41;100993.50;10531444;28;20509;-73
2023/08/14 11:30:36;;;;;;;0.73;0.73;;;;;;;21.44;63.58;100994.06;10504783;28;20041;-75
2023/08/14 11:35:39;;;;;;;2.35;1.00;;;;;;;21.44;62.73;101012.78;10521313;28;20406;-72
2023/08/14 11:40:41;;;;;;;1.38;0.90;;;;;;;21.86;62.88;101007.84;10474553;28;20538;-74
2023/08/14 11:45:43;;;;;;;1.63;1.00;;;;;;;22.06;62.91;101020.13;10519500;28;20040;-73
2023/08/14 11:50:47;;;;;;;1.25;1.15;;;;;;;22.15;62.30;101024.41;10531353;28;20059;-73
2023/08/14 11:55:49;;;;;;;1.75;1.08;;;;;;;22.01;61.16;101021.13;10549940;28;20048;-73
2023/08/14 12:00:51;;;;;;;1.10;1.00;;;;;;;21.74;61.90;101021.81;10494686;28;20036;-73
2023/08/14 12:06:00;;;;;;;1.45;1.25;;;;;;;21.92;61.69;101026.84;10529335;28;20037;-73
2023/08/14 12:11:03;;;;;;;5.30;1.00;;;;;;;22.67;60.84;101036.81;10524397;28;20100;-74
2023/08/14 12:16:08;;;;;;;1.73;1.10;;;;;;;22.58;60.22;101033.34;10470738;28;20068;-74
2023/08/14 12:21:11;;;;;;;1.55;0.90;;;;;;;22.65;60.49;101037.16;10515010;28;20047;-74
2023/08/14 12:26:14;;;;;;;3.00;0.90;;;;;;;22.36;60.89;101043.84;10527213;28;20119;-74
2023/08/14 12:31:17;;;;;;;2.05;1.02;;;;;;;22.18;62.64;101048.88;10524622;28;20048;-74
2023/08/14 12:36:19;;;;;;;3.10;1.40;;;;;;;21.99;61.86;101043.00;10500776;28;20067;-73
2023/08/14 12:41:22;;;;;;;2.95;1.10;;;;;;;21.94;61.70;101046.03;10565330;28;20040;-73
2023/08/14 12:46:24;;;;;;;1.35;1.23;;;;;;;22.21;62.16;101052.94;10540273;28;20151;-74
2023/08/14 12:51:26;;;;;;;6.25;1.30;;;;;;;22.18;61.98;101048.06;10510589;28;20414;-74
2023/08/14 12:56:29;;;;;;;1.75;1.10;;;;;;;22.25;62.92;101053.91;10477262;28;20055;-73
2023/08/14 13:01:32;;;;;;;3.97;1.73;;;;;;;21.93;64.24;101058.38;10523063;28;20454;-74
2023/08/14 13:06:34;;;;;;;1.95;1.08;;;;;;;21.94;63.79;101058.03;10526453;28;20048;-74
2023/08/14 13:11:36;;;;;;;2.35;1.48;;;;;;;22.09;64.35;101055.75;10489358;28;20527;-74
2023/08/14 13:16:38;;;;;;;1.30;1.20;;;;;;;22.17;64.30;101057.59;10511621;28;20067;-74
2023/08/14 13:21:40;;;;;;;1.55;1.45;;;;;;;22.07;62.38;101053.31;10496193;28;20048;-72
2023/08/14 13:26:43;;;;;;;2.08;1.40;;;;;;;21.59;64.30;101068.00;10525233;28;20055;-73
2023/08/14 13:31:46;;;;;;;2.90;1.52;;;;;;;21.55;65.40;101072.63;10527394;28;20044;-74
2023/08/14 13:36:49;;;;;;;3.63;1.67;;;;;;;21.64;64.88;101067.75;10526061;28;20399;-74
2023/08/14 13:41:51;;;;;;;1.30;1.17;;;;;;;22.06;63.93;101062.88;10506566;28;20048;-74
2023/08/14 13:46:53;;;;;;;1.60;1.23;;;;;;;22.37;62.25;101070.63;10480507;28;20047;-74
2023/08/14 13:51:56;;;;;;;1.25;1.13;;;;;;;22.14;63.02;101061.91;10506412;28;20048;-74
2023/08/14 13:56:58;;;;;;;1.83;1.30;;;;;;;21.87;63.16;101060.59;10524910;28;20056;-74
2023/08/14 14:02:00;;;;;;;1.77;1.20;;;;;;;21.48;65.09;101075.16;10525603;28;20056;-73
2023/08/14 14:07:03;;;;;;;1.98;1.25;;;;;;;21.35;65.87;101074.31;10525843;28;20045;-73
2023/08/14 14:12:05;;;;;;;2.15;1.77;;;;;;;21.16;66.84;101077.56;10512612;28;20052;-74
2023/08/14 14:17:08;;;;;;;1.38;1.27;;;;;;;20.93;67.58;101088.25;10520950;28;20076;-73
2023/08/14 14:22:10;;;;;;;2.60;1.40;;;;;;;21.08;67.85;101089.63;10525459;28;20053;-73
2023/08/14 14:27:12;;;;;;;2.30;1.40;;;;;;;21.07;68.24;101093.56;10508252;28;20067;-73
2023/08/14 14:32:14;;;;;;;3.42;1.30;;;;;;;21.22;67.48;101083.78;10504090;28;20037;-73
2023/08/14 14:37:17;;;;;;;4.30;1.83;;;;;;;21.28;66.82;101088.81;10524709;28;20055;-73
2023/08/14 14:42:23;;;;;;;2.00;1.50;;;;;;;21.40;66.02;101095.63;10506563;28;20045;-73
2023/08/14 14:47:26;;;;;;;1.83;1.20;;;;;;;21.53;66.09;101088.94;10537861;28;20317;-73
2023/08/14 14:52:28;;;;;;;2.03;1.45;;;;;;;21.59;65.08;101093.13;10526508;28;20041;-73
2023/08/14 14:57:30;;;;;;;3.58;1.48;;;;;;;21.69;65.49;101101.03;10531545;28;20467;-74
2023/08/14 15:02:32;;;;;;;1.63;1.27;;;;;;;21.66;65.76;101096.97;10531594;28;20056;-74
2023/08/14 15:07:35;;;;;;;3.17;1.80;;;;;;;21.63;66.00;101099.66;10531403;28;20049;-74
2023/08/14 15:12:37;;;;;;;2.10;1.55;;;;;;;21.76;66.16;101101.31;10530862;28;20040;-74
2023/08/14 15:17:39;;;;;;;2.80;1.70;;;;;;;21.70;65.80;101094.31;10516505;28;20502;-73
2023/08/14 15:22:45;;;;;;;5.40;2.10;;;;;;;21.65;64.53;101098.13;10524791;28;20048;-74
2023/08/14 15:27:47;;;;;;;2.33;1.48;;;;;;;21.68;64.36;101096.63;10509598;28;20522;-74
2023/08/14 15:32:49;;;;;;;3.63;1.52;;;;;;;21.41;65.09;101100.03;10528816;28;20048;-74
2023/08/14 15:37:51;;;;;;;2.20;1.48;;;;;;;21.33;65.78;101079.41;10511607;28;20529;-74
2023/08/14 15:42:53;;;;;;;2.10;1.60;;;;;;;21.26;66.45;101091.13;10507572;28;20040;-73
2023/08/14 15:47:58;;;;;;;1.55;1.42;;;;;;;21.20;66.56;101097.25;10510731;28;20053;-73
2023/08/14 15:53:00;;;;;;;2.45;1.48;;;;;;;21.02;66.48;101102.16;10526844;28;20660;-74
2023/08/14 15:58:03;;;;;;;2.75;1.90;;;;;;;20.94;66.88;101100.25;10525556;28;20055;-74
2023/08/14 16:03:06;;;;;;;4.50;1.35;;;;;;;20.94;68.38;101108.59;10507329;28;20033;-74
2023/08/14 16:08:08;;;;;;;4.68;1.85;;;;;;;20.77;68.96;101107.56;10522310;28;20040;-73
2023/08/14 16:13:10;;;;;;;3.72;1.52;;;;;;;20.60;69.93;101106.88;10522243;28;20040;-74
2023/08/14 16:18:12;;;;;;;1.52;1.40;;;;;;;20.53;70.34;101113.00;10521017;28;20063;-74
2023/08/14 16:23:15;;;;;;;2.40;1.58;;;;;;;20.45;70.91;101113.84;10513584;28;20043;-75
2023/08/14 16:28:17;;;;;;;2.53;1.48;;;;;;;20.45;70.38;101119.41;10539526;28;20863;-75
2023/08/14 16:33:19;;;;;;;4.25;1.92;;;;;;;20.36;71.29;101130.59;10518417;28;20035;-73
2023/08/14 16:38:21;;;;;;;3.95;1.55;;;;;;;20.25;71.66;101131.28;10497395;28;20059;-73
2023/08/14 16:43:24;;;;;;;1.50;1.33;;;;;;;20.21;73.12;101133.13;10525254;28;20047;-73
2023/08/14 16:48:26;;;;;;;2.53;1.42;;;;;;;20.21;73.10;101133.13;10512495;28;20037;-73
2023/08/14 16:53:29;;;;;;;1.88;1.70;;;;;;;20.10;74.11;101135.44;10522686;28;20041;-73
2023/08/14 16:58:31;;;;;;;1.83;1.60;;;;;;;20.04;74.79;101140.38;10509171;28;20584;-72
2023/08/14 17:03:33;;;;;;;2.05;1.52;;;;;;;19.97;75.10;101140.09;10490340;28;20056;-72
2023/08/14 17:08:35;;;;;;;1.80;1.25;;;;;;;19.87;76.20;101140.44;10487126;28;20414;-73
2023/08/14 17:13:38;;;;;;;2.50;1.50;;;;;;;19.79;76.32;101149.66;10508663;28;20045;-73
2023/08/14 17:18:40;;;;;;;2.80;2.00;;;;;;;19.75;76.84;101151.44;10525907;28;20395;-73
2023/08/14 17:23:42;;;;;;;2.78;1.40;;;;;;;19.77;77.03;101147.16;10497195;28;20060;-73
2023/08/14 17:28:44;;;;;;;3.20;1.90;;;;;;;19.80;76.97;101154.88;10492087;28;20032;-73
2023/08/14 17:33:47;;;;;;;4.63;2.42;;;;;;;19.68;76.91;101162.28;10521772;28;20044;-73
2023/08/14 17:38:49;;;;;;;4.07;1.98;;;;;;;19.60;77.41;101163.09;10500974;28;20052;-74
2023/08/14 17:43:52;;;;;;;3.38;1.90;;;;;;;19.59;78.16;101167.84;10524400;28;20404;-72
2023/08/14 17:48:54;;;;;;;2.35;1.80;;;;;;;19.51;78.10;101171.44;10524349;28;20040;-72
2023/08/14 17:53:56;;;;;;;4.85;2.22;;;;;;;19.43;78.83;101178.63;10525450;28;20036;-72
2023/08/14 17:58:59;;;;;;;2.50;1.92;;;;;;;19.39;79.20;101185.16;10520822;28;20053;-72
2023/08/14 18:04:01;;;;;;;2.60;2.10;;;;;;;19.37;79.83;101193.03;10509262;28;20041;-73
2023/08/14 18:09:03;;;;;;;3.67;1.88;;;;;;;19.42;79.75;101190.06;10489421;28;20037;-73
2023/08/14 18:14:06;;;;;;;2.33;1.80;;;;;;;19.35;80.57;101186.97;10497161;28;20036;-73
2023/08/14 18:19:08;;;;;;;4.13;2.10;;;;;;;19.33;80.34;101197.63;10524383;28;20055;-73
2023/08/14 18:24:10;;;;;;;4.57;2.22;;;;;;;19.22;81.38;101197.94;10519162;28;20055;-73
2023/08/14 18:29:12;;;;;;;5.05;1.80;;;;;;;19.19;81.48;101201.38;10532760;28;20041;-73
2023/08/14 18:34:14;;;;;;;4.35;2.10;;;;;;;19.22;81.52;101203.50;10515088;28;20029;-73
2023/08/14 18:39:17;;;;;;;2.83;1.90;;;;;;;19.23;81.45;101204.31;10509030;28;20040;-73
2023/08/14 18:44:23;;;;;;;2.83;1.65;;;;;;;19.14;81.73;101201.53;10504241;28;20037;-73
2023/08/14 18:49:26;;;;;;;4.05;2.00;;;;;;;19.08;82.45;101210.34;10526471;28;20041;-74
2023/08/14 18:54:28;;;;;;;4.47;2.17;;;;;;;19.07;82.88;101208.69;10533024;28;20406;-74
2023/08/14 18:59:30;;;;;;;5.15;2.28;;;;;;;18.98;82.59;101215.09;10531296;28;20040;-74
2023/08/14 19:04:32;;;;;;;3.33;1.90;;;;;;;18.93;83.97;101219.97;10531495;28;20040;-74
2023/08/14 19:09:35;;;;;;;5.82;2.13;;;;;;;18.90;84.01;101223.38;10532444;28;20048;-74
2023/08/14 19:14:37;;;;;;;4.10;1.92;;;;;;;18.83;84.05;101223.88;10526545;28;20510;-73
2023/08/14 19:19:40;;;;;;;3.75;1.83;;;;;;;18.75;84.64;101221.91;10526822;28;20036;-73
2023/08/14 19:24:42;;;;;;;3.28;1.50;;;;;;;18.75;84.39;101233.03;10502679;28;20048;-75
2023/08/14 19:29:45;;;;;;;2.33;1.88;;;;;;;18.77;83.96;101225.16;10491523;28;20044;-74
2023/08/14 19:34:47;;;;;;;3.45;1.70;;;;;;;18.74;84.24;101228.56;10531461;28;20041;-74
2023/08/14 19:39:49;;;;;;;2.53;1.90;;;;;;;18.70;85.09;101226.75;10522180;28;20055;-74
2023/08/14 19:44:51;;;;;;;2.85;1.67;;;;;;;18.68;85.09;101233.47;10525361;28;20067;-75
2023/08/14 19:49:53;;;;;;;3.15;1.90;;;;;;;18.72;85.02;101232.81;10509634;28;20507;-74
2023/08/14 19:54:56;;;;;;;4.03;2.15;;;;;;;18.70;85.67;101238.69;10522020;28;20052;-74
2023/08/14 19:59:59;;;;;;;3.95;2.10;;;;;;;18.64;86.36;101242.78;10514851;28;20518;-73
2023/08/14 20:05:04;;;;;;;6.13;3.20;;;;;;;18.56;86.30;101241.56;10524732;28;20056;-74
2023/08/14 20:10:07;;;;;;;3.47;2.20;;;;;;;18.54;86.89;101241.06;10494581;28;20407;-73
2023/08/14 20:15:09;;;;;;;10.95;4.70;;;;;;;18.55;86.47;101247.44;10518913;28;20052;-73
2023/08/14 20:20:17;;;;;;;5.15;2.10;;;;;;;18.50;86.84;101253.97;10507837;28;20033;-73
2023/08/14 20:25:19;;;;;;;4.70;2.33;;;;;;;18.50;86.19;101264.25;10523447;28;20045;-74
2023/08/14 20:30:21;;;;;;;3.13;2.20;;;;;;;18.43;86.68;101255.56;10519497;28;20032;-75
2023/08/14 20:35:23;;;;;;;4.03;1.70;;;;;;;18.36;87.15;101258.78;10524472;28;20147;-75
2023/08/14 20:40:26;;;;;;;2.58;1.65;;;;;;;18.34;87.25;101261.88;10520282;28;20197;-76
2023/08/14 20:45:34;;;;;;;3.25;1.88;;;;;;;18.32;87.44;101271.69;10514165;28;20047;-74
2023/08/14 20:50:36;;;;;;;3.50;1.88;;;;;;;18.32;87.41;101274.47;10486970;28;20057;-74
2023/08/14 20:55:42;;;;;;;3.67;2.15;;;;;;;18.32;88.30;101272.50;10489786;28;20048;-75
2023/08/14 21:00:48;;;;;;;3.22;1.95;;;;;;;18.31;87.91;101275.59;10515374;28;20513;-75
2023/08/14 21:05:53;;;;;;;4.15;1.92;;;;;;;18.29;88.33;101286.22;10519916;28;20055;-75
2023/08/14 21:10:56;;;;;;;3.03;1.73;;;;;;;18.24;88.13;101278.84;10506603;28;20584;-75
2023/08/14 21:15:59;;;;;;;5.10;2.17;;;;;;;18.18;89.19;101285.63;10509164;28;20061;-74
2023/08/14 21:21:01;;;;;;;2.22;1.65;;;;;;;18.16;89.30;101287.91;10507722;28;20048;-75
2023/08/14 21:26:03;;;;;;;3.78;1.88;;;;;;;18.10;90.07;101278.09;10529165;28;20422;-74
2023/08/14 21:31:05;;;;;;;2.78;2.40;;;;;;;18.07;90.44;101284.28;10525522;28;20075;-74
2023/08/14 21:36:08;;;;;;;4.25;2.22;;;;;;;18.04;90.83;101282.91;10507913;28;20044;-74
2023/08/14 21:41:10;;;;;;;4.25;2.50;;;;;;;18.00;91.09;101284.69;10520548;28;20036;-74
2023/08/14 21:46:12;;;;;;;4.70;2.15;;;;;;;17.98;91.54;101292.53;10528717;28;20052;-75
2023/08/14 21:51:14;;;;;;;3.50;2.10;;;;;;;17.96;92.36;101305.09;10525196;28;20056;-75
2023/08/14 21:56:16;;;;;;;2.78;1.95;;;;;;;17.97;92.58;101304.78;10530259;28;20048;-75
2023/08/14 22:01:19;;;;;;;3.45;2.05;;;;;;;17.90;93.23;101300.81;10559101;28;20542;-75
2023/08/14 22:06:21;;;;;;;6.75;2.40;;;;;;;17.88;93.25;101306.69;10545130;28;20044;-74
2023/08/14 22:11:23;;;;;;;4.97;2.25;;;;;;;17.85;93.61;101306.47;10534075;28;20418;-73
2023/08/14 22:16:26;;;;;;;5.28;2.35;;;;;;;17.80;94.27;101304.63;10502209;28;20632;-75
2023/08/14 22:21:28;;;;;;;2.42;2.00;;;;;;;17.80;94.65;101326.03;10510701;28;20048;-75
2023/08/14 22:26:31;;;;;;;2.60;2.00;;;;;;;17.81;95.02;101319.34;10499276;28;20041;-75
2023/08/14 22:31:33;;;;;;;5.18;2.20;;;;;;;17.70;95.14;101330.69;10497847;28;20049;-74
2023/08/14 22:36:35;;;;;;;4.60;2.20;;;;;;;17.74;95.47;101330.88;10555111;28;20044;-75
2023/08/14 22:41:37;;;;;;;3.58;2.28;;;;;;;17.74;95.24;101330.88;10513945;28;20048;-75
2023/08/14 22:46:40;;;;;;;3.67;2.00;;;;;;;17.75;95.09;101338.06;10532874;28;20047;-74
2023/08/14 22:51:42;;;;;;;3.20;1.67;;;;;;;17.72;95.92;101333.97;10541309;28;20406;-75
2023/08/14 22:56:44;;;;;;;2.80;1.83;;;;;;;17.68;95.68;101344.03;10530608;28;20515;-74
2023/08/14 23:01:46;;;;;;;3.83;2.00;;;;;;;17.69;95.86;101340.13;10531367;28;20572;-75
2023/08/14 23:06:50;;;;;;;2.33;1.85;;;;;;;17.69;96.29;101348.44;10532080;28;20061;-74
2023/08/14 23:11:52;;;;;;;4.88;2.30;;;;;;;17.65;96.23;101354.91;10535009;28;20041;-74